createdAt,value
2022-10-17T00:02:54.245Z,63.40
2022-10-17T00:06:01.600Z,63.40
2022-10-17T00:09:09.877Z,63.50
2022-10-17T00:12:17.315Z,63.60
2022-10-17T00:15:25.241Z,63.40
2022-10-17T00:18:35.592Z,63.60
2022-10-17T00:21:42.994Z,63.70
2022-10-17T00:24:50.427Z,63.70
2022-10-17T00:27:57.904Z,63.60
2022-10-17T00:31:07.341Z,63.60
2022-10-17T00:34:17.491Z,63.60
2022-10-17T00:37:24.710Z,63.60
2022-10-17T00:40:35.131Z,63.60
2022-10-17T00:44:01.545Z,63.50
2022-10-17T00:47:15.676Z,63.50
2022-10-17T00:50:27.338Z,63.60
2022-10-17T00:53:42.906Z,63.50
2022-10-17T00:56:51.536Z,63.60
2022-10-17T01:00:02.171Z,63.70
2022-10-17T01:03:09.460Z,63.60
2022-10-17T01:06:19.575Z,63.50
2022-10-17T01:09:27.545Z,63.50
2022-10-17T01:12:43.290Z,63.60
2022-10-17T01:16:02.609Z,63.60
2022-10-17T01:19:34.588Z,63.80
2022-10-17T01:22:50.753Z,63.80
2022-10-17T01:26:07.699Z,63.80
2022-10-17T01:29:42.709Z,63.80
2022-10-17T01:32:59.572Z,63.70
2022-10-17T01:36:13.578Z,63.80
2022-10-17T01:39:29.993Z,63.70
2022-10-17T01:42:41.223Z,63.90
2022-10-17T01:45:53.752Z,63.80
2022-10-17T01:49:06.183Z,63.80
2022-10-17T01:52:17.069Z,63.90
2022-10-17T01:55:30.384Z,63.90
2022-10-17T01:58:41.586Z,63.80
2022-10-17T02:01:53.535Z,63.90
2022-10-17T02:05:05.820Z,63.90
2022-10-17T02:08:13.744Z,63.90
2022-10-17T02:11:23.535Z,63.90
2022-10-17T02:14:45.112Z,63.80
2022-10-17T02:18:04.454Z,63.80
2022-10-17T02:21:22.479Z,63.80
2022-10-17T02:24:38.981Z,63.70
2022-10-17T02:27:51.499Z,63.80
2022-10-17T02:31:04.016Z,63.90
2022-10-17T02:34:16.212Z,63.90
2022-10-17T02:37:30.677Z,63.70
2022-10-17T02:40:39.651Z,63.90
2022-10-17T02:43:48.443Z,63.90
2022-10-17T02:47:02.977Z,63.90
2022-10-17T02:50:11.787Z,63.90
2022-10-17T02:53:31.513Z,64.00
2022-10-17T02:56:44.537Z,63.90
2022-10-17T02:59:53.520Z,63.80
2022-10-17T03:03:01.159Z,63.80
2022-10-17T03:06:06.428Z,63.80
2022-10-17T03:09:16.878Z,63.90
2022-10-17T03:12:24.101Z,64.00
2022-10-17T03:15:31.442Z,63.90
2022-10-17T03:18:38.750Z,63.90
2022-10-17T03:21:46.169Z,63.90
2022-10-17T03:24:56.351Z,63.90
2022-10-17T03:28:05.701Z,63.80
2022-10-17T03:31:20.711Z,63.80
2022-10-17T03:34:28.020Z,63.80
2022-10-17T03:37:35.317Z,63.80
2022-10-17T03:40:45.646Z,63.80
2022-10-17T03:43:53.025Z,63.80
2022-10-17T03:47:01.434Z,63.80
2022-10-17T03:50:10.197Z,63.80
2022-10-17T03:53:17.586Z,63.80
2022-10-17T03:56:28.828Z,63.80
2022-10-17T03:59:36.317Z,63.70
2022-10-17T04:02:45.180Z,63.80
2022-10-17T04:05:52.386Z,63.80
2022-10-17T04:08:59.676Z,63.90
2022-10-17T04:12:09.843Z,63.90
2022-10-17T04:15:17.249Z,63.90
2022-10-17T04:18:24.726Z,63.80
2022-10-17T04:21:32.428Z,63.90
2022-10-17T04:24:40.219Z,63.80
2022-10-17T04:27:50.369Z,63.80
2022-10-17T04:31:01.518Z,63.80
2022-10-17T04:34:08.843Z,63.90
2022-10-17T04:37:16.051Z,63.90
2022-10-17T04:40:23.980Z,63.90
2022-10-17T04:43:34.570Z,63.90
2022-10-17T04:46:41.958Z,64.00
2022-10-17T04:49:49.755Z,63.90
2022-10-17T04:52:57.307Z,63.90
2022-10-17T04:56:05.025Z,64.00
2022-10-17T04:59:15.181Z,63.90
2022-10-17T05:02:22.712Z,64.10
2022-10-17T05:05:30.113Z,64.30
2022-10-17T05:08:37.963Z,64.40
2022-10-17T05:11:46.350Z,64.40
2022-10-17T05:14:56.399Z,64.40
2022-10-17T05:18:03.846Z,64.70
2022-10-17T05:21:11.367Z,64.60
2022-10-17T05:24:19.465Z,64.50
2022-10-17T05:27:26.828Z,64.40
2022-10-17T05:30:38.188Z,64.30
2022-10-17T05:33:45.528Z,64.30
2022-10-17T05:36:52.758Z,64.20
2022-10-17T05:40:00.105Z,64.20
2022-10-17T05:43:07.666Z,64.20
2022-10-17T05:46:17.906Z,64.20
2022-10-17T05:49:33.391Z,64.20
2022-10-17T05:52:56.817Z,64.10
2022-10-17T05:56:21.122Z,64.10
2022-10-17T05:59:46.765Z,64.10
2022-10-17T06:03:15.444Z,64.10
2022-10-17T06:06:23.598Z,64.10
2022-10-17T06:09:32.105Z,64.00
2022-10-17T06:12:39.421Z,64.00
2022-10-17T06:15:46.785Z,64.00
2022-10-17T06:18:56.962Z,64.00
2022-10-17T06:22:04.604Z,64.00
2022-10-17T06:25:12.982Z,64.00
2022-10-17T06:28:20.615Z,64.00
2022-10-17T06:31:28.145Z,63.90
2022-10-17T06:34:38.493Z,64.00
2022-10-17T06:37:45.958Z,64.00
2022-10-17T06:40:54.281Z,64.00
2022-10-17T06:44:02.005Z,63.90
2022-10-17T06:47:09.444Z,63.90
2022-10-17T06:50:19.800Z,63.90
2022-10-17T06:53:28.878Z,63.90
2022-10-17T06:56:36.288Z,63.80
2022-10-17T06:59:43.942Z,64.00
2022-10-17T07:02:51.420Z,64.10
2022-10-17T07:06:02.096Z,64.00
2022-10-17T07:09:10.062Z,63.90
2022-10-17T07:12:17.627Z,63.90
2022-10-17T07:15:24.956Z,63.80
2022-10-17T07:18:32.517Z,63.90
2022-10-17T07:21:42.892Z,64.10
2022-10-17T07:28:03.099Z,64.20
2022-10-17T07:31:12.060Z,64.20
2022-10-17T07:34:19.771Z,64.10
2022-10-17T07:37:30.507Z,64.00
2022-10-17T07:40:38.261Z,63.90
2022-10-17T07:43:45.692Z,63.70
2022-10-17T07:46:53.189Z,63.60
2022-10-17T07:50:01.291Z,63.50
2022-10-17T07:53:11.738Z,63.40
2022-10-17T07:56:19.782Z,63.40
2022-10-17T07:59:27.443Z,63.40
2022-10-17T08:02:34.983Z,63.30
2022-10-17T08:05:42.592Z,63.30
2022-10-17T08:08:53.238Z,63.40
2022-10-17T08:12:01.260Z,63.40
2022-10-17T08:15:10.038Z,63.40
2022-10-17T08:18:18.138Z,63.40
2022-10-17T08:21:23.644Z,63.20
2022-10-17T08:24:33.931Z,63.20
2022-10-17T08:27:39.655Z,63.20
2022-10-17T08:30:47.339Z,63.10
2022-10-17T08:33:54.978Z,63.20
2022-10-17T08:37:02.773Z,63.20
2022-10-17T08:40:20.364Z,63.20
2022-10-17T08:43:38.414Z,63.30
2022-10-17T08:46:48.266Z,63.30
2022-10-17T08:49:58.132Z,63.40
2022-10-17T08:53:12.981Z,63.40
2022-10-17T08:59:57.134Z,63.60
2022-10-17T09:03:15.746Z,63.70
2022-10-17T09:06:30.173Z,63.90
2022-10-17T09:09:45.404Z,64.00
2022-10-17T09:13:07.590Z,64.10
2022-10-17T09:16:37.623Z,64.10
2022-10-17T09:19:51.654Z,64.00
2022-10-17T09:23:03.145Z,64.00
2022-10-17T09:26:14.970Z,63.90
2022-10-17T09:29:32.416Z,63.80
2022-10-17T09:32:43.440Z,63.90
2022-10-17T09:35:53.084Z,63.90
2022-10-17T09:39:02.968Z,64.00
2022-10-17T09:42:13.530Z,63.90
2022-10-17T09:45:27.985Z,63.90
2022-10-17T09:48:41.735Z,63.90
2022-10-17T09:51:51.127Z,64.00
2022-10-17T09:55:08.946Z,64.00
2022-10-17T09:58:16.532Z,63.90
2022-10-17T10:01:29.938Z,64.00
2022-10-17T10:04:59.638Z,64.00
2022-10-17T10:08:08.868Z,64.10
2022-10-17T10:11:18.170Z,64.10
2022-10-17T10:14:33.606Z,64.20
2022-10-17T10:17:46.437Z,64.30
2022-10-17T10:21:08.895Z,64.40
2022-10-17T10:24:17.670Z,64.30
2022-10-17T10:30:52.771Z,64.50
2022-10-17T10:34:05.713Z,64.40
2022-10-17T10:37:22.322Z,64.30
2022-10-17T10:40:35.556Z,64.40
2022-10-17T10:43:45.734Z,64.40
2022-10-17T10:47:10.316Z,64.50
2022-10-17T10:50:32.106Z,64.40
2022-10-17T10:53:49.175Z,64.40
2022-10-17T10:56:59.800Z,64.50
2022-10-17T11:00:15.736Z,64.50
2022-10-17T11:03:36.926Z,64.40
2022-10-17T11:06:49.328Z,64.50
2022-10-17T11:10:01.640Z,64.40
2022-10-17T11:13:15.063Z,64.30
2022-10-17T11:16:32.047Z,64.30
2022-10-17T11:19:44.185Z,64.10
2022-10-17T11:23:01.887Z,64.20
2022-10-17T11:26:14.504Z,64.10
2022-10-17T11:29:22.001Z,64.10
2022-10-17T11:32:34.905Z,64.00
2022-10-17T11:35:48.052Z,64.10
2022-10-17T11:39:03.297Z,64.10
2022-10-17T11:42:15.633Z,64.00
2022-10-17T11:45:26.845Z,64.00
2022-10-17T11:48:40.564Z,64.00
2022-10-17T11:52:00.918Z,63.90
2022-10-17T11:55:17.292Z,64.10
2022-10-17T11:58:34.723Z,64.20
2022-10-17T12:01:45.047Z,64.20
2022-10-17T12:05:02.662Z,64.20
2022-10-17T12:08:21.123Z,64.10
2022-10-17T12:11:46.223Z,64.10
2022-10-17T12:14:53.610Z,64.20
2022-10-17T12:18:04.348Z,64.30
2022-10-17T12:21:12.023Z,64.20
2022-10-17T12:24:36.572Z,64.20
2022-10-17T12:27:50.346Z,64.30
2022-10-17T12:31:03.248Z,64.30
2022-10-17T12:34:27.676Z,64.30
2022-10-17T12:38:32.455Z,64.20
2022-10-17T12:41:57.375Z,64.20
2022-10-17T12:45:47.660Z,64.30
2022-10-17T12:49:23.941Z,64.30
2022-10-17T12:53:00.146Z,64.30
2022-10-17T12:56:08.508Z,64.30
2022-10-17T12:59:20.818Z,64.20
2022-10-17T13:02:33.387Z,64.20
2022-10-17T13:05:44.645Z,64.10
2022-10-17T13:09:03.117Z,64.10
2022-10-17T13:12:17.739Z,64.10
2022-10-17T13:15:25.578Z,64.00
2022-10-17T13:18:37.406Z,64.00
2022-10-17T13:21:53.655Z,64.00
2022-10-17T13:25:12.985Z,63.90
2022-10-17T13:28:20.464Z,63.90
2022-10-17T13:31:33.965Z,63.90
2022-10-17T13:34:44.543Z,63.80
2022-10-17T13:37:54.138Z,63.70
2022-10-17T13:41:30.111Z,63.70
2022-10-17T13:44:35.594Z,63.60
2022-10-17T13:47:44.353Z,63.60
2022-10-17T13:50:59.250Z,63.50
2022-10-17T13:54:22.135Z,63.50
2022-10-17T13:57:31.941Z,63.50
2022-10-17T14:00:39.998Z,63.40
2022-10-17T14:03:49.144Z,63.40
2022-10-17T14:07:02.532Z,63.40
2022-10-17T14:10:22.503Z,63.50
2022-10-17T14:13:30.815Z,63.40
2022-10-17T14:16:41.202Z,63.40
2022-10-17T14:20:00.255Z,63.50
2022-10-17T14:23:36.555Z,63.40
2022-10-17T14:26:51.530Z,63.40
2022-10-17T14:30:01.201Z,63.40
2022-10-17T14:33:15.071Z,63.30
2022-10-17T14:36:23.792Z,63.30
2022-10-17T14:39:34.105Z,63.30
2022-10-17T14:42:43.629Z,63.30
2022-10-17T14:45:51.470Z,63.20
2022-10-17T14:49:02.260Z,63.30
2022-10-17T14:52:33.918Z,63.20
2022-10-17T14:55:58.172Z,63.30
2022-10-17T14:59:11.130Z,63.30
2022-10-17T15:02:19.363Z,63.30
2022-10-17T15:05:27.100Z,63.20
2022-10-17T15:08:34.798Z,63.20
2022-10-17T15:11:45.159Z,63.20
2022-10-17T15:14:52.635Z,63.10
2022-10-17T15:18:00.497Z,63.10
2022-10-17T15:21:33.294Z,63.00
2022-10-17T15:24:41.491Z,63.10
2022-10-17T15:27:51.805Z,63.00
2022-10-17T15:30:59.336Z,63.10
2022-10-17T15:34:06.963Z,63.10
2022-10-17T15:37:22.322Z,63.10
2022-10-17T15:40:33.411Z,63.10
2022-10-17T15:43:43.796Z,63.10
2022-10-17T15:46:51.805Z,63.10
2022-10-17T15:50:00.139Z,63.10
2022-10-17T15:53:09.240Z,63.10
2022-10-17T15:56:24.515Z,63.10
2022-10-17T15:59:37.904Z,63.10
2022-10-17T16:02:45.693Z,63.20
2022-10-17T16:05:53.286Z,63.20
2022-10-17T16:09:00.875Z,63.20
2022-10-17T16:12:14.421Z,63.20
2022-10-17T16:15:26.858Z,63.20
2022-10-17T16:18:34.479Z,63.20
2022-10-17T16:21:43.832Z,63.30
2022-10-17T16:24:58.468Z,63.30
2022-10-17T16:28:06.509Z,63.20
2022-10-17T16:31:25.314Z,63.20
2022-10-17T16:34:32.779Z,63.40
2022-10-17T16:37:40.350Z,63.40
2022-10-17T16:40:48.390Z,63.40
2022-10-17T16:43:55.432Z,63.40
2022-10-17T16:47:05.755Z,63.50
2022-10-17T16:50:13.735Z,63.40
2022-10-17T16:53:21.347Z,63.30
2022-10-17T16:56:30.009Z,63.30
2022-10-17T16:59:37.584Z,63.40
2022-10-17T17:02:50.350Z,63.40
2022-10-17T17:05:57.869Z,63.50
2022-10-17T17:09:05.480Z,63.40
2022-10-17T17:12:14.587Z,63.30
2022-10-17T17:15:22.093Z,63.30
2022-10-17T17:18:32.224Z,63.40
2022-10-17T17:21:39.592Z,63.40
2022-10-17T17:24:47.199Z,63.40
2022-10-17T17:27:54.798Z,63.40
2022-10-17T17:31:02.534Z,63.40
2022-10-17T17:34:15.649Z,63.40
2022-10-17T17:37:25.729Z,63.40
2022-10-17T17:40:34.773Z,63.40
2022-10-17T17:43:42.536Z,63.40
2022-10-17T17:46:50.613Z,63.40
2022-10-17T17:50:00.859Z,63.40
2022-10-17T17:53:08.858Z,63.40
2022-10-17T17:56:18.383Z,63.40
2022-10-17T17:59:26.142Z,63.30
2022-10-17T18:02:33.634Z,63.30
2022-10-17T18:05:43.952Z,63.30
2022-10-17T18:08:55.309Z,63.30
2022-10-17T18:12:02.851Z,63.30
2022-10-17T18:15:11.521Z,63.30
2022-10-17T18:18:19.102Z,63.30
2022-10-17T18:21:29.494Z,63.30
2022-10-17T18:24:37.273Z,63.30
2022-10-17T18:27:44.802Z,63.20
2022-10-17T18:30:52.442Z,63.20
2022-10-17T18:34:01.831Z,63.20
2022-10-17T18:37:12.671Z,63.10
2022-10-17T18:40:20.383Z,63.10
2022-10-17T18:43:25.923Z,63.10
2022-10-17T18:46:36.330Z,63.00
2022-10-17T18:49:50.044Z,63.10
2022-10-17T18:53:01.867Z,63.10
2022-10-17T18:56:10.659Z,63.00
2022-10-17T18:59:20.448Z,63.10
2022-10-17T19:02:28.578Z,63.10
2022-10-17T19:05:37.191Z,63.10
2022-10-17T19:08:48.483Z,63.20
2022-10-17T19:11:56.753Z,63.20
2022-10-17T19:15:05.063Z,63.10
2022-10-17T19:18:13.731Z,63.10
2022-10-17T19:21:22.439Z,63.10
2022-10-17T19:24:33.251Z,63.30
2022-10-17T19:27:40.907Z,63.10
2022-10-17T19:30:48.406Z,63.10
2022-10-17T19:33:55.972Z,63.10
2022-10-17T19:37:03.943Z,62.90
2022-10-17T19:40:17.106Z,62.80
2022-10-17T19:43:25.697Z,63.20
2022-10-17T19:46:36.267Z,63.50
2022-10-17T19:49:49.023Z,63.60
2022-10-17T19:52:57.361Z,63.50
2022-10-17T19:56:09.181Z,63.40
2022-10-17T19:59:19.423Z,63.20
2022-10-17T20:02:26.887Z,63.00
2022-10-17T20:05:35.148Z,63.00
2022-10-17T20:08:43.572Z,62.80
2022-10-17T20:11:54.103Z,62.70
2022-10-17T20:15:01.524Z,62.80
2022-10-17T20:18:09.622Z,62.50
2022-10-17T20:21:18.884Z,62.60
2022-10-17T20:24:26.330Z,62.80
2022-10-17T20:27:36.613Z,62.60
2022-10-17T20:30:48.512Z,62.50
2022-10-17T20:33:58.842Z,62.40
2022-10-17T20:37:06.662Z,62.60
2022-10-17T20:40:34.243Z,62.30
2022-10-17T20:43:46.116Z,62.50
2022-10-17T20:47:16.223Z,62.30
2022-10-17T20:50:47.523Z,62.10
2022-10-17T20:54:05.674Z,62.00
2022-10-17T20:57:13.318Z,62.30
2022-10-17T21:00:24.965Z,61.90
2022-10-17T21:03:33.571Z,61.90
2022-10-17T21:06:42.057Z,61.60
2022-10-17T21:09:50.665Z,61.60
2022-10-17T21:13:00.762Z,61.60
2022-10-17T21:16:15.455Z,61.90
2022-10-17T21:19:25.954Z,61.70
2022-10-17T21:22:35.948Z,61.60
2022-10-17T21:25:43.445Z,61.50
2022-10-17T21:28:52.053Z,61.50
2022-10-17T21:32:02.183Z,61.40
2022-10-17T21:35:10.485Z,61.50
2022-10-17T21:38:17.850Z,61.40
2022-10-17T21:41:26.622Z,61.70
2022-10-17T21:44:34.259Z,61.60
2022-10-17T21:47:54.883Z,61.70
2022-10-17T21:51:10.837Z,61.70
2022-10-17T21:54:19.119Z,61.70
2022-10-17T21:57:26.606Z,61.70
2022-10-17T22:00:34.026Z,61.70
2022-10-17T22:03:46.903Z,61.60
2022-10-17T22:06:54.415Z,61.60
2022-10-17T22:10:02.932Z,61.70
2022-10-17T22:13:10.834Z,61.60
2022-10-17T22:16:18.604Z,61.60
2022-10-17T22:19:29.244Z,61.60
2022-10-17T22:22:36.817Z,61.60
2022-10-17T22:25:44.237Z,61.70
2022-10-17T22:28:51.784Z,61.70
2022-10-17T22:31:59.219Z,61.70
2022-10-17T22:35:10.661Z,61.70
2022-10-17T22:38:18.491Z,61.60
2022-10-17T22:41:26.186Z,61.70
2022-10-17T22:44:33.682Z,61.70
2022-10-17T22:47:41.083Z,61.70
2022-10-17T22:50:51.404Z,61.70
2022-10-17T22:53:58.890Z,61.70
2022-10-17T22:57:06.207Z,61.60
2022-10-17T23:00:15.053Z,61.60
2022-10-17T23:03:23.630Z,61.60
2022-10-17T23:06:33.745Z,61.60
2022-10-17T23:09:41.367Z,61.50
2022-10-17T23:12:48.955Z,61.40
2022-10-17T23:15:57.855Z,61.40
2022-10-17T23:19:05.125Z,61.30
2022-10-17T23:22:15.293Z,61.30
2022-10-17T23:25:22.943Z,61.20
2022-10-17T23:28:31.028Z,61.20
2022-10-17T23:31:38.399Z,61.20
2022-10-17T23:34:45.667Z,61.30
2022-10-17T23:37:55.899Z,61.20
2022-10-17T23:41:03.354Z,61.20
2022-10-17T23:44:10.962Z,61.30
2022-10-17T23:47:18.570Z,61.30
2022-10-17T23:50:26.161Z,61.30
2022-10-17T23:53:36.417Z,61.30
2022-10-17T23:56:43.884Z,61.30
2022-10-17T23:59:51.367Z,61.30
